createdAt,value
2018-09-23T00:03:24.457Z,12.30
2018-09-23T00:08:33.107Z,12.40
2018-09-23T00:11:07.606Z,12.30
2018-09-23T00:13:41.789Z,12.40
2018-09-23T00:16:16.199Z,12.30
2018-09-23T00:18:51.465Z,12.40
2018-09-23T00:21:26.093Z,12.40
2018-09-23T00:24:00.473Z,12.40
2018-09-23T00:29:09.824Z,12.30
2018-09-23T00:31:44.257Z,12.30
2018-09-23T00:34:18.701Z,12.30
2018-09-23T00:36:53.109Z,12.20
2018-09-23T00:39:27.410Z,12.20
2018-09-23T00:42:01.583Z,12.10
2018-09-23T00:44:35.863Z,12.20
2018-09-23T00:47:10.201Z,12.20
2018-09-23T00:49:44.614Z,12.10
2018-09-23T00:52:19.002Z,12.10
2018-09-23T00:54:53.458Z,12.10
2018-09-23T00:57:27.826Z,12.10
2018-09-23T01:00:02.214Z,12.10
2018-09-23T01:02:36.478Z,12.20
2018-09-23T01:05:10.970Z,12.20
2018-09-23T01:07:45.441Z,12.20
2018-09-23T01:10:19.742Z,12.20
2018-09-23T01:12:54.230Z,12.20
2018-09-23T01:15:28.590Z,12.20
2018-09-23T01:23:11.282Z,12.40
2018-09-23T01:25:45.584Z,12.40
2018-09-23T01:30:54.630Z,12.30
2018-09-23T01:36:03.265Z,12.30
2018-09-23T01:38:37.654Z,12.10
2018-09-23T01:41:11.993Z,12.20
2018-09-23T01:43:46.502Z,12.20
2018-09-23T01:46:20.865Z,12.20
2018-09-23T01:48:55.252Z,12.20
2018-09-23T01:51:29.822Z,12.30
2018-09-23T01:56:38.533Z,12.20
2018-09-23T01:59:12.884Z,12.20
2018-09-23T02:01:47.208Z,12.20
2018-09-23T02:04:21.673Z,12.10
2018-09-23T02:06:55.920Z,12.10
2018-09-23T02:09:30.432Z,12.10
2018-09-23T02:12:04.874Z,12.10
2018-09-23T02:14:39.360Z,12.10
2018-09-23T02:17:13.924Z,12.00
2018-09-23T02:19:48.321Z,12.10
2018-09-23T02:27:31.103Z,12.10
2018-09-23T02:30:05.812Z,12.10
2018-09-23T02:32:40.331Z,12.10
2018-09-23T02:35:14.668Z,12.10
2018-09-23T02:37:49.129Z,12.10
2018-09-23T02:40:23.835Z,12.10
2018-09-23T02:42:58.181Z,12.10
2018-09-23T02:45:33.349Z,12.10
2018-09-23T02:48:07.689Z,12.10
2018-09-23T02:50:42.204Z,12.10
2018-09-23T02:53:16.531Z,12.10
2018-09-23T02:55:50.837Z,12.10
2018-09-23T02:58:25.269Z,12.10
2018-09-23T03:00:59.744Z,12.10
2018-09-23T03:06:08.122Z,12.20
2018-09-23T03:08:42.561Z,12.10
2018-09-23T03:11:16.852Z,12.10
2018-09-23T03:13:51.242Z,12.20
2018-09-23T03:16:25.493Z,12.20
2018-09-23T03:21:33.929Z,12.20
2018-09-23T03:24:08.206Z,12.20
2018-09-23T03:26:42.647Z,12.20
2018-09-23T03:29:17.033Z,12.20
2018-09-23T03:31:51.514Z,12.20
2018-09-23T03:34:26.193Z,12.20
2018-09-23T03:37:00.565Z,12.10
2018-09-23T03:39:34.866Z,12.10
2018-09-23T03:42:09.299Z,12.10
2018-09-23T03:44:43.738Z,12.10
2018-09-23T03:47:18.241Z,12.10
2018-09-23T03:52:26.650Z,12.10
2018-09-23T03:55:00.981Z,12.10
2018-09-23T03:57:35.403Z,12.20
2018-09-23T04:00:09.930Z,12.20
2018-09-23T04:02:44.125Z,12.20
2018-09-23T04:07:53.412Z,12.10
2018-09-23T04:10:27.740Z,12.10
2018-09-23T04:13:02.029Z,12.10
2018-09-23T04:15:36.516Z,12.10
2018-09-23T04:18:10.966Z,12.10
2018-09-23T04:20:45.355Z,12.10
2018-09-23T04:23:19.802Z,12.10
2018-09-23T04:25:54.225Z,12.10
2018-09-23T04:28:28.552Z,12.10
2018-09-23T04:31:02.913Z,12.00
2018-09-23T04:33:37.251Z,12.00
2018-09-23T04:36:11.615Z,12.00
2018-09-23T04:38:45.993Z,12.00
2018-09-23T04:41:20.371Z,12.00
2018-09-23T04:49:03.206Z,12.00
2018-09-23T04:51:37.558Z,12.00
2018-09-23T04:54:11.833Z,11.90
2018-09-23T04:59:20.513Z,12.00
2018-09-23T05:04:28.976Z,11.90
2018-09-23T05:07:03.328Z,11.90
2018-09-23T05:09:37.817Z,11.90
2018-09-23T05:14:46.479Z,11.90
2018-09-23T05:17:20.834Z,11.90
2018-09-23T05:19:55.119Z,11.90
2018-09-23T05:22:29.341Z,12.00
2018-09-23T05:25:03.890Z,12.00
2018-09-23T05:27:38.205Z,12.00
2018-09-23T05:30:12.594Z,12.00
2018-09-23T05:32:47.119Z,12.10
2018-09-23T05:35:21.527Z,12.00
2018-09-23T05:37:55.965Z,12.10
2018-09-23T05:40:30.421Z,12.10
2018-09-23T05:43:04.729Z,12.10
2018-09-23T05:45:39.059Z,12.20
2018-09-23T05:48:13.491Z,12.20
2018-09-23T05:50:47.936Z,12.20
2018-09-23T05:55:56.403Z,12.30
2018-09-23T05:58:30.806Z,12.30
2018-09-23T06:03:39.129Z,12.30
2018-09-23T06:13:55.919Z,12.70
2018-09-23T06:16:30.310Z,12.60
2018-09-23T06:19:04.627Z,12.60
2018-09-23T06:21:38.981Z,12.60
2018-09-23T06:24:13.482Z,12.60
2018-09-23T06:29:21.901Z,12.70
2018-09-23T06:31:56.215Z,12.70
2018-09-23T06:34:31.325Z,12.80
2018-09-23T06:37:06.612Z,12.60
2018-09-23T06:42:15.108Z,12.90
2018-09-23T06:44:49.379Z,12.90
2018-09-23T06:47:24.205Z,12.90
2018-09-23T06:49:58.630Z,12.90
2018-09-23T06:52:32.978Z,12.90
2018-09-23T06:55:07.345Z,13.00
2018-09-23T07:00:15.712Z,13.00
2018-09-23T07:02:50.037Z,13.10
2018-09-23T07:05:24.489Z,13.20
2018-09-23T07:07:58.854Z,13.20
2018-09-23T07:13:07.511Z,13.30
2018-09-23T07:15:41.842Z,13.30
2018-09-23T07:18:16.381Z,13.30
2018-09-23T07:20:50.987Z,13.30
2018-09-23T07:28:33.823Z,13.50
2018-09-23T07:31:08.114Z,13.70
2018-09-23T07:33:42.575Z,13.70
2018-09-23T07:38:51.228Z,13.70
2018-09-23T07:41:25.638Z,13.70
2018-09-23T07:46:34.319Z,13.80
2018-09-23T07:51:42.835Z,13.80
2018-09-23T07:54:17.208Z,13.80
2018-09-23T07:56:51.622Z,13.90
2018-09-23T07:59:25.913Z,13.90
2018-09-23T08:02:00.333Z,13.90
2018-09-23T08:04:34.812Z,14.00
2018-09-23T08:07:09.650Z,14.10
2018-09-23T08:09:44.094Z,14.10
2018-09-23T08:12:18.602Z,14.00
2018-09-23T08:14:53.448Z,14.00
2018-09-23T08:17:27.480Z,13.90
2018-09-23T08:20:01.944Z,13.90
2018-09-23T08:22:36.037Z,13.80
2018-09-23T08:25:10.497Z,13.80
2018-09-23T08:27:44.701Z,13.80
2018-09-23T08:30:19.922Z,13.90
2018-09-23T08:32:54.216Z,14.00
2018-09-23T08:35:28.583Z,13.90
2018-09-23T08:38:02.874Z,14.00
2018-09-23T08:40:37.399Z,14.00
2018-09-23T08:43:12.492Z,14.10
2018-09-23T08:45:46.879Z,14.10
2018-09-23T08:48:21.271Z,14.10
2018-09-23T08:50:55.681Z,14.20
2018-09-23T08:53:29.979Z,14.10
2018-09-23T08:56:04.351Z,14.20
2018-09-23T08:58:38.741Z,14.10
2018-09-23T09:01:12.945Z,14.10
2018-09-23T09:03:47.444Z,14.10
2018-09-23T09:06:21.697Z,14.10
2018-09-23T09:08:56.038Z,14.00
2018-09-23T09:11:31.317Z,14.00
2018-09-23T09:14:05.834Z,14.10
2018-09-23T09:16:40.088Z,14.10
2018-09-23T09:19:15.177Z,14.10
2018-09-23T09:24:23.581Z,14.10
2018-09-23T09:26:58.049Z,14.10
2018-09-23T09:29:32.426Z,14.10
2018-09-23T09:32:06.758Z,14.10
2018-09-23T09:37:15.887Z,14.00
2018-09-23T09:39:50.097Z,13.90
2018-09-23T09:42:25.041Z,14.00
2018-09-23T09:44:59.301Z,14.00
2018-09-23T09:47:34.315Z,14.00
2018-09-23T09:50:08.643Z,13.90
2018-09-23T09:52:42.996Z,13.90
2018-09-23T09:55:17.389Z,13.80
2018-09-23T09:57:51.865Z,13.80
2018-09-23T10:00:31.625Z,13.70
2018-09-23T10:03:06.950Z,13.80
2018-09-23T10:05:41.157Z,13.80
2018-09-23T10:10:49.496Z,13.90
2018-09-23T10:13:23.793Z,13.80
2018-09-23T10:15:58.113Z,13.80
2018-09-23T10:18:32.323Z,13.80
2018-09-23T10:21:06.706Z,13.80
2018-09-23T10:23:41.053Z,13.70
2018-09-23T10:26:15.329Z,13.50
2018-09-23T10:28:49.838Z,13.40
2018-09-23T10:31:24.208Z,13.30
2018-09-23T10:33:58.558Z,13.30
2018-09-23T10:36:32.913Z,13.20
2018-09-23T10:39:08.791Z,13.30
2018-09-23T10:41:43.074Z,13.30
2018-09-23T10:46:51.790Z,13.40
2018-09-23T10:49:26.233Z,13.50
2018-09-23T10:52:00.615Z,13.50
2018-09-23T10:54:34.983Z,13.60
2018-09-23T10:57:10.298Z,13.60
2018-09-23T10:59:44.615Z,13.60
2018-09-23T11:02:18.927Z,13.60
2018-09-23T11:04:54.665Z,13.50
2018-09-23T11:07:29.034Z,13.50
2018-09-23T11:10:04.146Z,13.50
2018-09-23T11:12:38.419Z,13.40
2018-09-23T11:15:12.748Z,13.40
2018-09-23T11:17:46.914Z,13.40
2018-09-23T11:20:21.825Z,13.30
2018-09-23T11:22:56.145Z,13.20
2018-09-23T11:25:30.563Z,13.20
2018-09-23T11:28:04.863Z,13.20
2018-09-23T11:30:40.029Z,13.20
2018-09-23T11:33:14.285Z,13.10
2018-09-23T11:35:48.798Z,13.10
2018-09-23T11:40:57.702Z,13.10
2018-09-23T11:43:32.141Z,13.10
2018-09-23T11:46:06.464Z,13.00
2018-09-23T11:48:41.353Z,13.00
2018-09-23T11:51:15.894Z,13.00
2018-09-23T11:53:50.377Z,12.90
2018-09-23T11:56:24.781Z,12.90
2018-09-23T11:58:59.321Z,12.80
2018-09-23T12:01:33.669Z,12.80
2018-09-23T12:04:08.219Z,12.80
2018-09-23T12:06:43.634Z,12.80
2018-09-23T12:09:17.954Z,12.80
2018-09-23T12:11:53.789Z,12.80
2018-09-23T12:17:02.148Z,12.80
2018-09-23T12:19:37.733Z,12.80
2018-09-23T12:22:12.159Z,12.80
2018-09-23T12:24:46.709Z,12.80
2018-09-23T12:27:20.970Z,12.80
2018-09-23T12:29:55.550Z,12.80
2018-09-23T12:35:05.461Z,12.80
2018-09-23T12:37:39.907Z,12.80
2018-09-23T12:40:14.257Z,12.90
2018-09-23T12:45:24.741Z,13.00
2018-09-23T12:47:59.249Z,13.00
2018-09-23T12:50:33.757Z,13.10
2018-09-23T12:53:08.149Z,13.10
2018-09-23T12:55:42.381Z,13.10
2018-09-23T12:58:16.685Z,13.20
2018-09-23T13:00:51.193Z,13.20
2018-09-23T13:03:25.705Z,13.10
2018-09-23T13:06:00.055Z,13.10
2018-09-23T13:11:08.629Z,12.90
2018-09-23T13:13:42.934Z,12.90
2018-09-23T13:16:17.458Z,12.90
2018-09-23T13:18:52.386Z,12.90
2018-09-23T13:21:27.415Z,12.90
2018-09-23T13:24:01.849Z,12.90
2018-09-23T13:26:36.125Z,12.80
2018-09-23T13:31:44.790Z,12.70
2018-09-23T13:36:53.529Z,12.70
2018-09-23T13:39:28.033Z,12.70
2018-09-23T13:42:02.381Z,12.80
2018-09-23T13:44:36.803Z,12.70
2018-09-23T13:47:11.919Z,12.80
2018-09-23T13:49:46.258Z,12.80
2018-09-23T13:52:21.204Z,12.80
2018-09-23T13:54:55.672Z,12.80
2018-09-23T13:57:31.018Z,12.80
2018-09-23T14:00:05.613Z,12.80
2018-09-23T14:02:40.173Z,12.70
2018-09-23T14:05:14.507Z,12.70
2018-09-23T14:07:49.030Z,12.70
2018-09-23T14:12:58.007Z,12.70
2018-09-23T14:15:32.505Z,12.70
2018-09-23T14:18:07.022Z,12.70
2018-09-23T14:20:41.371Z,12.70
2018-09-23T14:23:15.785Z,12.60
2018-09-23T14:25:50.161Z,12.60
2018-09-23T14:28:24.681Z,12.60
2018-09-23T14:30:59.154Z,12.70
2018-09-23T14:33:33.637Z,12.70
2018-09-23T14:36:07.853Z,12.60
2018-09-23T14:38:42.256Z,12.70
2018-09-23T14:43:51.212Z,12.70
2018-09-23T14:46:25.830Z,12.60
2018-09-23T14:49:00.439Z,12.70
2018-09-23T14:56:43.125Z,12.70
2018-09-23T14:59:17.575Z,12.70
2018-09-23T15:01:51.901Z,12.60
2018-09-23T15:04:26.186Z,12.50
2018-09-23T15:09:34.633Z,12.40
2018-09-23T15:17:17.362Z,12.50
2018-09-23T15:19:51.712Z,12.60
2018-09-23T15:22:26.213Z,12.60
2018-09-23T15:27:34.875Z,12.80
2018-09-23T15:30:09.361Z,12.80
2018-09-23T15:32:43.715Z,12.80
2018-09-23T15:35:17.993Z,12.70
2018-09-23T15:37:52.333Z,12.70
2018-09-23T15:40:26.558Z,12.60
2018-09-23T15:43:00.869Z,12.60
2018-09-23T15:45:35.423Z,12.40
2018-09-23T15:50:43.891Z,12.30
2018-09-23T15:53:18.360Z,12.20
2018-09-23T15:55:53.460Z,12.20
2018-09-23T15:58:27.907Z,12.20
2018-09-23T16:01:02.227Z,12.10
2018-09-23T16:03:36.534Z,12.10
2018-09-23T16:06:10.842Z,12.10
2018-09-23T16:08:45.057Z,12.00
2018-09-23T16:11:19.414Z,11.90
2018-09-23T16:13:53.806Z,11.90
2018-09-23T16:16:28.136Z,11.80
2018-09-23T16:26:46.326Z,11.60
2018-09-23T16:29:21.370Z,11.50
2018-09-23T16:31:55.729Z,11.40
2018-09-23T16:37:04.365Z,11.40
2018-09-23T16:47:21.285Z,11.60
2018-09-23T16:52:31.377Z,11.60
2018-09-23T16:55:05.879Z,11.60
2018-09-23T17:02:48.629Z,11.60
2018-09-23T17:05:23.143Z,11.50
2018-09-23T17:10:32.616Z,11.50
2018-09-23T17:13:06.892Z,11.50
2018-09-23T17:15:41.267Z,11.40
2018-09-23T17:18:15.799Z,11.40
2018-09-23T17:23:24.230Z,11.40
2018-09-23T17:25:58.598Z,11.30
2018-09-23T17:28:33.017Z,11.30
2018-09-23T17:31:07.405Z,11.30
2018-09-23T17:33:41.880Z,11.20
2018-09-23T17:36:16.409Z,11.20
2018-09-23T17:38:50.751Z,11.10
2018-09-23T17:41:25.091Z,11.10
2018-09-23T17:43:59.405Z,11.10
2018-09-23T17:46:33.993Z,11.10
2018-09-23T17:49:08.048Z,11.00
2018-09-23T17:51:42.491Z,11.00
2018-09-23T17:54:17.348Z,11.10
2018-09-23T17:56:51.732Z,11.10
2018-09-23T17:59:26.130Z,11.00
2018-09-23T18:02:00.644Z,11.00
2018-09-23T18:04:35.074Z,11.00
2018-09-23T18:07:09.327Z,10.90
2018-09-23T18:09:43.590Z,10.90
2018-09-23T18:12:17.909Z,10.90
2018-09-23T18:14:52.415Z,10.90
2018-09-23T18:17:26.810Z,10.80
2018-09-23T18:20:01.028Z,10.80
2018-09-23T18:22:35.392Z,10.70
2018-09-23T18:25:10.424Z,10.70
2018-09-23T18:27:44.945Z,10.70
2018-09-23T18:30:19.234Z,10.70
2018-09-23T18:32:53.703Z,10.70
2018-09-23T18:35:28.586Z,10.70
2018-09-23T18:38:02.862Z,10.80
2018-09-23T18:40:37.431Z,10.80
2018-09-23T18:43:11.973Z,10.80
2018-09-23T18:45:46.252Z,10.90
2018-09-23T18:48:20.582Z,10.80
2018-09-23T18:50:56.950Z,10.80
2018-09-23T18:53:31.873Z,10.90
2018-09-23T18:56:09.094Z,10.90
2018-09-23T18:58:43.439Z,10.90
2018-09-23T19:01:17.757Z,10.90
2018-09-23T19:03:52.176Z,10.80
2018-09-23T19:06:27.352Z,10.90
2018-09-23T19:09:01.629Z,10.90
2018-09-23T19:11:36.058Z,10.90
2018-09-23T19:14:10.991Z,10.80
2018-09-23T19:16:45.417Z,10.80
2018-09-23T19:19:21.032Z,10.80
2018-09-23T19:21:55.572Z,10.80
2018-09-23T19:24:29.997Z,10.80
2018-09-23T19:29:38.595Z,10.70
2018-09-23T19:32:13.082Z,10.70
2018-09-23T19:34:47.522Z,10.70
2018-09-23T19:39:56.255Z,10.70
2018-09-23T19:42:31.253Z,10.70
2018-09-23T19:45:06.381Z,10.70
2018-09-23T19:47:42.635Z,10.60
2018-09-23T19:50:17.229Z,10.60
2018-09-23T19:52:51.697Z,10.60
2018-09-23T19:55:26.207Z,10.60
2018-09-23T19:58:00.532Z,10.60
2018-09-23T20:00:35.261Z,10.60
2018-09-23T20:03:09.581Z,10.60
2018-09-23T20:05:43.976Z,10.60
2018-09-23T20:08:18.319Z,10.60
2018-09-23T20:10:52.791Z,10.60
2018-09-23T20:13:27.124Z,10.60
2018-09-23T20:16:01.604Z,10.60
2018-09-23T20:18:36.065Z,10.60
2018-09-23T20:21:10.500Z,10.60
2018-09-23T20:23:45.457Z,10.60
2018-09-23T20:26:19.830Z,10.60
2018-09-23T20:28:54.147Z,10.60
2018-09-23T20:31:28.503Z,10.60
2018-09-23T20:34:04.050Z,10.60
2018-09-23T20:36:39.025Z,10.60
2018-09-23T20:39:13.444Z,10.50
2018-09-23T20:41:48.418Z,10.50
2018-09-23T20:44:22.642Z,10.50
2018-09-23T20:46:58.002Z,10.50
2018-09-23T20:49:32.446Z,10.50
2018-09-23T20:52:06.857Z,10.50
2018-09-23T20:54:41.461Z,10.50
2018-09-23T20:57:16.009Z,10.40
2018-09-23T20:59:50.358Z,10.40
2018-09-23T21:02:26.125Z,10.50
2018-09-23T21:05:00.442Z,10.50
2018-09-23T21:07:34.816Z,10.50
2018-09-23T21:10:09.185Z,10.50
2018-09-23T21:12:43.578Z,10.40
2018-09-23T21:15:17.907Z,10.40
2018-09-23T21:17:52.198Z,10.40
2018-09-23T21:20:26.614Z,10.40
2018-09-23T21:23:00.896Z,10.50
2018-09-23T21:25:35.333Z,10.50
2018-09-23T21:28:09.738Z,10.50
2018-09-23T21:30:44.038Z,10.40
2018-09-23T21:33:18.517Z,10.30
2018-09-23T21:38:27.007Z,10.30
2018-09-23T21:41:01.412Z,10.30
2018-09-23T21:43:35.834Z,10.30
2018-09-23T21:46:10.254Z,10.30
2018-09-23T21:48:44.679Z,10.30
2018-09-23T21:51:19.134Z,10.30
2018-09-23T21:59:01.851Z,10.30
2018-09-23T22:01:36.168Z,10.30
2018-09-23T22:06:46.828Z,10.20
2018-09-23T22:09:21.169Z,10.20
2018-09-23T22:11:55.488Z,10.10
2018-09-23T22:14:29.997Z,10.10
2018-09-23T22:17:04.536Z,10.20
2018-09-23T22:19:38.957Z,10.20
2018-09-23T22:22:13.491Z,10.20
2018-09-23T22:24:47.855Z,10.20
2018-09-23T22:27:22.137Z,10.30
2018-09-23T22:29:56.568Z,10.30
2018-09-23T22:35:06.431Z,10.40
2018-09-23T22:37:40.794Z,10.40
2018-09-23T22:42:49.363Z,10.30
2018-09-23T22:45:23.682Z,10.30
2018-09-23T22:47:57.842Z,10.30
2018-09-23T22:50:32.126Z,10.20
2018-09-23T22:55:40.694Z,10.20
2018-09-23T22:58:15.077Z,10.10
2018-09-23T23:03:24.031Z,10.00
2018-09-23T23:08:32.557Z,10.10
2018-09-23T23:11:08.640Z,10.00
2018-09-23T23:13:43.025Z,10.00
2018-09-23T23:18:51.735Z,10.00
2018-09-23T23:26:34.659Z,10.00
2018-09-23T23:29:09.894Z,10.00
2018-09-23T23:31:44.523Z,10.00
2018-09-23T23:36:53.072Z,9.90
2018-09-23T23:44:36.011Z,9.90
2018-09-23T23:47:10.415Z,10.00
2018-09-23T23:49:44.766Z,10.00
2018-09-23T23:52:19.174Z,10.00
2018-09-23T23:54:53.717Z,10.00
2018-09-23T23:57:28.091Z,10.00
